createdAt,value
2022-09-21T00:00:53.377Z,29
2022-09-21T00:01:56.192Z,28.5
2022-09-21T00:02:59.029Z,29
2022-09-21T00:04:01.711Z,28.7
2022-09-21T00:05:03.629Z,28.7
2022-09-21T00:06:05.577Z,29.1
2022-09-21T00:07:07.197Z,29
2022-09-21T00:08:09.411Z,29
2022-09-21T00:09:11.890Z,28.5
2022-09-21T00:10:14.366Z,29.1
2022-09-21T00:11:16.890Z,28.5
2022-09-21T00:12:19.365Z,28.8
2022-09-21T00:13:21.830Z,29.1
2022-09-21T00:14:24.020Z,28.6
2022-09-21T00:15:26.492Z,29.1
2022-09-21T00:16:29.050Z,28.5
2022-09-21T00:17:31.754Z,28.8
2022-09-21T00:18:34.084Z,29.1
2022-09-21T00:19:36.602Z,29
2022-09-21T00:20:39.060Z,28.9
2022-09-21T00:21:41.523Z,29.1
2022-09-21T00:22:43.996Z,28.8
2022-09-21T00:23:46.197Z,28.9
2022-09-21T00:24:48.469Z,29.1
2022-09-21T00:25:50.944Z,29.1
2022-09-21T00:26:53.462Z,28.7
2022-09-21T00:27:55.937Z,29.1
2022-09-21T00:28:58.417Z,28.7
2022-09-21T00:30:00.887Z,28.8
2022-09-21T00:31:02.794Z,29.1
2022-09-21T00:32:05.345Z,28.7
2022-09-21T00:33:08.162Z,28.8
2022-09-21T00:34:10.642Z,29.2
2022-09-21T00:35:12.863Z,29.1
2022-09-21T00:36:15.055Z,29.1
2022-09-21T00:37:17.526Z,29
2022-09-21T00:38:19.999Z,29
2022-09-21T00:39:22.191Z,29.1
2022-09-21T00:40:24.824Z,28.9
2022-09-21T00:41:27.545Z,29
2022-09-21T00:42:30.073Z,28.9
2022-09-21T00:43:32.570Z,28.7
2022-09-21T00:44:34.752Z,29.1
2022-09-21T00:45:36.987Z,28.8
2022-09-21T00:46:39.510Z,29
2022-09-21T00:47:41.452Z,28.9
2022-09-21T00:48:43.931Z,28.9
2022-09-21T00:49:46.422Z,28.9
2022-09-21T00:50:48.914Z,29.3
2022-09-21T00:51:51.377Z,29.1
2022-09-21T00:52:53.848Z,28.8
2022-09-21T00:53:56.311Z,29.1
2022-09-21T00:54:58.516Z,29.4
2022-09-21T00:56:01.005Z,28.9
2022-09-21T00:57:03.592Z,29
2022-09-21T00:58:06.110Z,28.9
2022-09-21T00:59:08.319Z,28.8
2022-09-21T01:00:10.799Z,29.3
2022-09-21T01:01:13.022Z,29
2022-09-21T01:02:15.210Z,28.9
2022-09-21T01:03:18.008Z,29.3
2022-09-21T01:04:20.492Z,29
2022-09-21T01:05:22.690Z,28.8
2022-09-21T01:06:24.635Z,29.3
2022-09-21T01:07:27.119Z,28.8
2022-09-21T01:08:29.040Z,29
2022-09-21T01:09:31.511Z,29.2
2022-09-21T01:10:33.708Z,29.3
2022-09-21T01:11:36.202Z,29.1
2022-09-21T01:12:38.375Z,29.3
2022-09-21T01:13:40.659Z,29.1
2022-09-21T01:14:43.146Z,29.2
2022-09-21T01:15:45.620Z,29.2
2022-09-21T01:16:48.091Z,29.1
2022-09-21T01:17:50.587Z,29.6
2022-09-21T01:18:52.794Z,29.3
2022-09-21T01:19:55.259Z,29.1
2022-09-21T01:20:57.733Z,29.3
2022-09-21T01:22:00.232Z,29.1
2022-09-21T01:23:02.714Z,28.9
2022-09-21T01:24:05.184Z,29
2022-09-21T01:25:07.684Z,29.2
2022-09-21T01:26:09.885Z,29.2
2022-09-21T01:27:12.378Z,29.2
2022-09-21T01:28:14.865Z,29.4
2022-09-21T01:29:17.129Z,29.1
2022-09-21T01:30:19.320Z,29.1
2022-09-21T01:31:21.553Z,29.3
2022-09-21T01:32:24.265Z,29.3
2022-09-21T01:33:26.736Z,29.3
2022-09-21T01:34:29.206Z,29.2
2022-09-21T01:35:31.406Z,29.1
2022-09-21T01:36:33.601Z,29
2022-09-21T01:37:35.913Z,29.1
2022-09-21T01:38:38.382Z,29.3
2022-09-21T01:39:40.849Z,29.1
2022-09-21T01:40:43.630Z,29.4
2022-09-21T01:41:46.401Z,29.2
2022-09-21T01:42:48.901Z,29.3
2022-09-21T01:43:51.374Z,29.1
2022-09-21T01:44:53.987Z,29.1
2022-09-21T01:45:56.221Z,29.1
2022-09-21T01:46:58.740Z,29.2
2022-09-21T01:48:00.945Z,29.2
2022-09-21T01:49:03.139Z,29
2022-09-21T01:50:05.597Z,29.1
2022-09-21T01:51:08.060Z,29.2
2022-09-21T01:52:10.266Z,29
2022-09-21T01:53:12.488Z,29.2
2022-09-21T01:54:14.956Z,29.1
2022-09-21T01:55:17.465Z,29.1
2022-09-21T01:56:20.003Z,28.9
2022-09-21T01:57:22.487Z,29.2
2022-09-21T01:58:24.970Z,29.2
2022-09-21T01:59:27.440Z,29.1
2022-09-21T02:00:30.109Z,29.1
2022-09-21T02:01:32.647Z,29
2022-09-21T02:02:35.115Z,29
2022-09-21T02:03:37.587Z,29
2022-09-21T02:04:39.783Z,29.4
2022-09-21T02:05:41.975Z,29.2
2022-09-21T02:08:01.302Z,29.2
2022-09-21T02:09:03.793Z,29.2
2022-09-21T02:10:06.257Z,29.2
2022-09-21T02:11:08.169Z,29.1
2022-09-21T02:12:10.072Z,29.1
2022-09-21T02:13:18.427Z,29.2
2022-09-21T02:14:20.703Z,29.1
2022-09-21T02:15:23.178Z,29.3
2022-09-21T02:16:25.786Z,29.2
2022-09-21T02:17:28.182Z,29.2
2022-09-21T02:18:30.646Z,29.1
2022-09-21T02:19:33.118Z,29.2
2022-09-21T02:20:35.312Z,29.1
2022-09-21T02:21:37.784Z,29.2
2022-09-21T02:22:40.260Z,29
2022-09-21T02:23:42.753Z,29.2
2022-09-21T02:24:44.970Z,29.1
2022-09-21T02:25:47.438Z,29.3
2022-09-21T02:26:49.915Z,29
2022-09-21T02:27:52.393Z,29.3
2022-09-21T02:28:54.906Z,29.5
2022-09-21T02:29:57.622Z,29.2
2022-09-21T02:30:59.842Z,29.2
2022-09-21T02:32:02.429Z,29.3
2022-09-21T02:33:04.603Z,29.5
2022-09-21T02:34:07.079Z,29.1
2022-09-21T02:35:09.745Z,29.1
2022-09-21T02:36:12.239Z,29.2
2022-09-21T02:37:14.713Z,29.1
2022-09-21T02:38:17.195Z,29.1
2022-09-21T02:39:19.387Z,29.2
2022-09-21T02:40:21.920Z,29.3
2022-09-21T02:41:24.522Z,29.2
2022-09-21T02:42:26.993Z,29.2
2022-09-21T02:43:29.472Z,29.3
2022-09-21T02:44:31.962Z,29.3
2022-09-21T02:45:34.467Z,29.3
2022-09-21T02:46:36.685Z,29.1
2022-09-21T02:47:39.530Z,29.1
2022-09-21T02:48:42.034Z,29.1
2022-09-21T02:49:44.227Z,29.1
2022-09-21T02:50:46.701Z,29.2
2022-09-21T02:51:49.182Z,29.1
2022-09-21T02:52:51.734Z,29.3
2022-09-21T02:53:54.202Z,29.6
2022-09-21T02:54:56.382Z,29.1
2022-09-21T02:55:58.598Z,29
2022-09-21T02:57:01.074Z,29.3
2022-09-21T02:58:03.274Z,29.2
2022-09-21T02:59:05.861Z,29.1
2022-09-21T03:00:08.854Z,29.2
2022-09-21T03:01:11.083Z,29
2022-09-21T03:02:13.364Z,29.4
2022-09-21T03:03:16.271Z,29.4
2022-09-21T03:04:18.757Z,29.2
2022-09-21T03:05:20.950Z,28.9
2022-09-21T03:06:23.141Z,29
2022-09-21T03:07:25.310Z,28.9
2022-09-21T03:08:27.784Z,29.1
2022-09-21T03:09:30.279Z,28.9
2022-09-21T03:10:32.463Z,29.3
2022-09-21T03:11:34.674Z,29.1
2022-09-21T03:12:37.142Z,29.1
2022-09-21T03:13:39.335Z,29.1
2022-09-21T03:14:41.241Z,28.9
2022-09-21T03:15:43.237Z,29
2022-09-21T03:16:45.988Z,29.1
2022-09-21T03:17:48.458Z,29.1
2022-09-21T03:18:51.057Z,29
2022-09-21T03:19:53.530Z,29
2022-09-21T03:20:55.999Z,28.5
2022-09-21T03:21:58.172Z,29
2022-09-21T03:23:00.368Z,29
2022-09-21T03:24:02.851Z,29
2022-09-21T03:25:05.321Z,28.7
2022-09-21T03:26:07.514Z,28.8
2022-09-21T03:27:10.038Z,28.9
2022-09-21T03:28:12.201Z,28.9
2022-09-21T03:29:14.403Z,29
2022-09-21T03:30:16.873Z,29.1
2022-09-21T03:31:19.400Z,28.7
2022-09-21T03:32:21.803Z,28.9
2022-09-21T03:33:24.263Z,28.7
2022-09-21T03:34:26.784Z,29
2022-09-21T03:35:29.094Z,28.8
2022-09-21T03:36:31.774Z,28.7
2022-09-21T03:37:37.014Z,28.8
2022-09-21T03:38:39.336Z,28.3
2022-09-21T03:39:41.830Z,28.9
2022-09-21T03:40:44.342Z,28.4
2022-09-21T03:41:46.831Z,28.8
2022-09-21T03:42:49.413Z,28.4
2022-09-21T03:43:51.895Z,28.7
2022-09-21T03:44:53.551Z,29
2022-09-21T03:45:55.801Z,28.9
2022-09-21T03:46:58.599Z,28.8
2022-09-21T03:48:01.283Z,28.5
2022-09-21T03:49:03.965Z,28.6
2022-09-21T03:50:09.758Z,28.8
2022-09-21T03:51:11.498Z,28.8
2022-09-21T03:52:13.987Z,28.7
2022-09-21T03:53:16.477Z,28.3
2022-09-21T03:54:18.976Z,28.6
2022-09-21T03:55:21.451Z,28.7
2022-09-21T03:56:23.684Z,29
2022-09-21T03:57:26.189Z,28.6
2022-09-21T03:58:28.713Z,28.9
2022-09-21T03:59:30.925Z,28.8
2022-09-21T04:00:33.404Z,28.7
2022-09-21T04:01:35.093Z,28.5
2022-09-21T04:02:37.886Z,28.7
2022-09-21T04:03:40.600Z,28.7
2022-09-21T04:04:43.103Z,28.3
2022-09-21T04:05:45.711Z,28.6
2022-09-21T04:06:47.888Z,28.3
2022-09-21T04:07:50.370Z,28.6
2022-09-21T04:08:52.547Z,28.6
2022-09-21T04:09:55.023Z,28.5
2022-09-21T04:10:57.493Z,28.8
2022-09-21T04:11:59.972Z,28.5
2022-09-21T04:13:02.178Z,28.3
2022-09-21T04:14:03.839Z,28.5
2022-09-21T04:15:06.021Z,28.5
2022-09-21T04:16:08.264Z,28.7
2022-09-21T04:17:11.104Z,28.4
2022-09-21T04:18:13.899Z,28.4
2022-09-21T04:19:16.417Z,28.6
2022-09-21T04:20:18.949Z,28.6
2022-09-21T04:21:21.593Z,28.4
2022-09-21T04:22:23.820Z,28.6
2022-09-21T04:23:26.374Z,28.6
2022-09-21T04:24:28.570Z,28.4
2022-09-21T04:25:30.764Z,28.3
2022-09-21T04:26:32.984Z,28.6
2022-09-21T04:27:35.448Z,28.5
2022-09-21T04:28:37.920Z,28.4
2022-09-21T04:29:40.469Z,28.4
2022-09-21T04:30:42.741Z,28.3
2022-09-21T04:31:45.483Z,28.2
2022-09-21T04:32:47.963Z,28.6
2022-09-21T04:33:50.138Z,28.4
2022-09-21T04:34:52.411Z,28.6
2022-09-21T04:35:54.602Z,28.1
2022-09-21T04:36:57.175Z,28.4
2022-09-21T04:37:59.655Z,28.6
2022-09-21T04:39:02.128Z,28.4
2022-09-21T04:40:04.078Z,28.5
2022-09-21T04:41:06.959Z,28.7
2022-09-21T04:42:08.887Z,28.3
2022-09-21T04:43:11.092Z,28.3
2022-09-21T04:44:13.303Z,28.4
2022-09-21T04:45:15.533Z,28.6
2022-09-21T04:46:18.038Z,28.5
2022-09-21T04:47:20.938Z,28.4
2022-09-21T04:48:23.134Z,28.3
2022-09-21T04:49:25.064Z,28.5
2022-09-21T04:50:27.287Z,28.3
2022-09-21T04:51:29.203Z,28.4
2022-09-21T04:52:31.460Z,28.2
2022-09-21T04:53:33.934Z,28.3
2022-09-21T04:54:36.401Z,28.1
2022-09-21T04:55:38.868Z,28.3
2022-09-21T04:56:41.337Z,28.4
2022-09-21T04:57:43.532Z,28.3
2022-09-21T04:58:46.003Z,28.6
2022-09-21T04:59:48.477Z,28.1
2022-09-21T05:00:50.976Z,28.1
2022-09-21T05:01:53.786Z,28.5
2022-09-21T05:02:56.054Z,28.3
2022-09-21T05:03:58.573Z,28.4
2022-09-21T05:05:01.089Z,28.5
2022-09-21T05:06:03.703Z,28.3
2022-09-21T05:07:06.196Z,28.3
2022-09-21T05:08:08.729Z,28.3
2022-09-21T05:09:10.923Z,28.3
2022-09-21T05:10:13.385Z,28.4
2022-09-21T05:11:15.884Z,28.4
2022-09-21T05:12:18.371Z,28.2
2022-09-21T05:13:20.571Z,28.3
2022-09-21T05:14:22.778Z,28.3
2022-09-21T05:15:25.320Z,28.4
2022-09-21T05:16:27.895Z,28.4
2022-09-21T05:17:30.370Z,28.2
2022-09-21T05:18:32.840Z,28.5
2022-09-21T05:19:35.335Z,28.4
2022-09-21T05:20:37.796Z,28.3
2022-09-21T05:21:40.014Z,28.3
2022-09-21T05:22:42.212Z,28.2
2022-09-21T05:23:44.864Z,28.3
2022-09-21T05:24:47.336Z,28.3
2022-09-21T05:25:49.557Z,28.1
2022-09-21T05:26:52.040Z,28.6
2022-09-21T05:27:54.242Z,28.2
2022-09-21T05:28:56.717Z,28.3
2022-09-21T05:29:59.341Z,28.4
2022-09-21T05:31:16.988Z,28.4
2022-09-21T05:32:06.857Z,28.4
2022-09-21T05:33:09.342Z,28.2
2022-09-21T05:34:11.830Z,28.3
2022-09-21T05:35:14.029Z,28.3
2022-09-21T05:36:16.502Z,28.2
2022-09-21T05:37:18.419Z,28.1
2022-09-21T05:38:20.618Z,28.2
2022-09-21T05:39:22.898Z,28.3
2022-09-21T05:40:25.455Z,28.3
2022-09-21T05:41:28.013Z,28.1
2022-09-21T05:42:30.500Z,28.2
2022-09-21T05:43:32.973Z,28.1
2022-09-21T05:44:35.463Z,28.5
2022-09-21T05:45:37.700Z,28.2
2022-09-21T05:46:39.816Z,28.2
2022-09-21T05:47:42.311Z,28.4
2022-09-21T05:48:44.521Z,28.4
2022-09-21T05:49:46.690Z,28.2
2022-09-21T05:50:48.873Z,28.3
2022-09-21T05:51:51.086Z,28.2
2022-09-21T05:52:53.014Z,28.5
2022-09-21T05:53:55.230Z,28.2
2022-09-21T05:54:57.823Z,28.6
2022-09-21T05:55:59.474Z,28.4
2022-09-21T05:57:01.657Z,28.1
2022-09-21T05:58:04.127Z,28.2
2022-09-21T05:59:06.625Z,28.2
2022-09-21T06:00:09.105Z,28.5
2022-09-21T06:01:11.641Z,28.3
2022-09-21T06:02:14.298Z,28.3
2022-09-21T06:03:17.768Z,28.4
2022-09-21T06:04:20.342Z,28.3
2022-09-21T06:05:22.855Z,28.5
2022-09-21T06:06:25.025Z,28.2
2022-09-21T06:07:27.226Z,28.3
2022-09-21T06:08:29.738Z,28.2
2022-09-21T06:09:31.966Z,28.1
2022-09-21T06:10:34.520Z,28.3
2022-09-21T06:11:36.450Z,28.3
2022-09-21T06:12:38.930Z,28.1
2022-09-21T06:13:41.407Z,28.2
2022-09-21T06:14:43.880Z,28.1
2022-09-21T06:15:45.804Z,28.2
2022-09-21T06:16:47.784Z,28.5
2022-09-21T06:17:50.564Z,28.2
2022-09-21T06:18:53.077Z,28.3
2022-09-21T06:19:55.271Z,28.3
2022-09-21T06:20:57.764Z,28.1
2022-09-21T06:22:00.256Z,28.3
2022-09-21T06:23:02.559Z,28.2
2022-09-21T06:24:05.057Z,28.2
2022-09-21T06:25:07.248Z,28.3
2022-09-21T06:26:09.784Z,28.4
2022-09-21T06:27:12.260Z,28.2
2022-09-21T06:28:14.737Z,28.3
2022-09-21T06:29:17.210Z,28.2
2022-09-21T06:30:19.679Z,28.4
2022-09-21T06:31:22.171Z,28
2022-09-21T06:32:24.339Z,28.3
2022-09-21T06:33:26.260Z,28
2022-09-21T06:34:28.465Z,28.1
2022-09-21T06:35:30.946Z,28.1
2022-09-21T06:36:33.116Z,28.3
2022-09-21T06:37:35.331Z,28.1
2022-09-21T06:38:37.259Z,28.3
2022-09-21T06:39:39.489Z,28.3
2022-09-21T06:40:41.731Z,28.5
2022-09-21T06:41:44.623Z,28.2
2022-09-21T06:42:46.526Z,28.2
2022-09-21T06:43:48.718Z,28.1
2022-09-21T06:44:51.214Z,28.3
2022-09-21T06:45:53.736Z,28.1
2022-09-21T06:46:56.306Z,28.1
2022-09-21T06:47:58.790Z,28.2
2022-09-21T06:49:01.288Z,28.2
2022-09-21T06:50:03.513Z,28.3
2022-09-21T06:51:05.991Z,28.4
2022-09-21T06:52:08.191Z,28.1
2022-09-21T06:53:10.396Z,28.3
2022-09-21T06:54:12.309Z,28.2
2022-09-21T06:55:14.506Z,28.2
2022-09-21T06:56:16.700Z,28.1
2022-09-21T06:57:19.209Z,28.1
2022-09-21T06:58:21.684Z,27.8
2022-09-21T06:59:24.156Z,28.3
2022-09-21T07:00:26.404Z,28.3
2022-09-21T07:01:28.814Z,28.3
2022-09-21T07:02:31.620Z,28.3
2022-09-21T07:03:34.099Z,28.2
2022-09-21T07:04:36.576Z,28.3
2022-09-21T07:05:38.500Z,28.1
2022-09-21T07:06:40.710Z,28.4
2022-09-21T07:07:43.194Z,28.1
2022-09-21T07:10:06.581Z,28.2
2022-09-21T07:10:55.147Z,28.2
2022-09-21T07:11:57.644Z,28
2022-09-21T07:13:00.177Z,28.1
2022-09-21T07:14:02.118Z,28.3
2022-09-21T07:15:04.598Z,28.2
2022-09-21T07:16:06.845Z,28.4
2022-09-21T07:17:09.456Z,28.2
2022-09-21T07:18:15.064Z,28.2
2022-09-21T07:19:17.554Z,28
2022-09-21T07:20:19.788Z,28.1
2022-09-21T07:21:22.007Z,28.2
2022-09-21T07:22:24.186Z,28.3
2022-09-21T07:23:26.592Z,28.2
2022-09-21T07:24:28.823Z,28.2
2022-09-21T07:25:31.302Z,28.2
2022-09-21T07:26:33.509Z,28.3
2022-09-21T07:27:35.706Z,28.2
2022-09-21T07:28:38.260Z,28.4
2022-09-21T07:29:40.737Z,28.2
2022-09-21T07:30:42.940Z,28.2
2022-09-21T07:31:44.955Z,28.2
2022-09-21T07:32:47.585Z,28.1
2022-09-21T07:33:50.055Z,28.3
2022-09-21T07:34:52.528Z,28
2022-09-21T07:35:55.007Z,28.1
2022-09-21T07:36:57.265Z,28.1
2022-09-21T07:37:59.782Z,28.3
2022-09-21T07:39:02.273Z,28.1
2022-09-21T07:40:04.490Z,28
2022-09-21T07:41:07.423Z,28.2
2022-09-21T07:42:09.618Z,27.9
2022-09-21T07:43:12.119Z,28.4
2022-09-21T07:44:14.685Z,28.1
2022-09-21T07:45:17.166Z,28.1
2022-09-21T07:46:19.867Z,28.2
2022-09-21T07:47:21.812Z,28.1
2022-09-21T07:48:24.018Z,28.2
2022-09-21T07:49:25.939Z,28.3
2022-09-21T07:50:28.419Z,28.2
2022-09-21T07:51:30.908Z,28.1
2022-09-21T07:52:33.423Z,28.3
2022-09-21T07:53:35.916Z,28.2
2022-09-21T07:54:38.124Z,28.1
2022-09-21T07:55:40.055Z,28.1
2022-09-21T07:56:41.990Z,28.2
2022-09-21T07:57:44.478Z,28.3
2022-09-21T07:58:46.985Z,28.2
2022-09-21T07:59:49.524Z,28.1
2022-09-21T08:00:51.492Z,28
2022-09-21T08:01:53.641Z,27.9
2022-09-21T08:02:56.110Z,28.3
2022-09-21T08:03:58.395Z,28.2
2022-09-21T08:05:00.377Z,28
2022-09-21T08:06:02.664Z,28.2
2022-09-21T08:07:04.866Z,28.2
2022-09-21T08:08:07.677Z,28.2
2022-09-21T08:09:10.169Z,28.2
2022-09-21T08:10:12.379Z,28.2
2022-09-21T08:11:14.583Z,27.9
2022-09-21T08:12:17.070Z,28
2022-09-21T08:13:18.995Z,28
2022-09-21T08:14:25.986Z,27.9
2022-09-21T08:15:47.286Z,28.3
2022-09-21T08:16:31.593Z,28.2
2022-09-21T08:17:35.032Z,28
2022-09-21T08:18:38.044Z,27.8
2022-09-21T08:19:41.204Z,28
2022-09-21T08:20:43.126Z,28
2022-09-21T08:21:45.611Z,28.1
2022-09-21T08:22:47.832Z,28.3
2022-09-21T08:23:49.804Z,28.2
2022-09-21T08:24:52.269Z,28.3
2022-09-21T08:25:54.738Z,28.4
2022-09-21T08:26:56.970Z,28.1
2022-09-21T08:27:59.173Z,28.1
2022-09-21T08:29:01.375Z,28
2022-09-21T08:30:03.861Z,28.2
2022-09-21T08:31:06.398Z,28.2
2022-09-21T08:32:09.178Z,28.1
2022-09-21T08:33:14.894Z,28.4
2022-09-21T08:34:17.388Z,28.2
2022-09-21T08:35:19.591Z,27.9
2022-09-21T08:36:22.075Z,28.1
2022-09-21T08:37:24.347Z,27.9
2022-09-21T08:38:26.831Z,28.2
2022-09-21T08:39:29.462Z,28
2022-09-21T08:40:32.073Z,28.1
2022-09-21T08:41:34.952Z,28.1
2022-09-21T08:42:37.454Z,28.1
2022-09-21T08:43:39.942Z,28
2022-09-21T08:44:42.426Z,28.3
2022-09-21T08:45:44.641Z,28.2
2022-09-21T08:46:46.947Z,28
2022-09-21T08:47:49.493Z,28.2
2022-09-21T08:48:52.008Z,28
2022-09-21T08:49:54.231Z,28
2022-09-21T08:50:56.436Z,28.2
2022-09-21T08:51:58.924Z,28
2022-09-21T08:53:01.893Z,27.9
2022-09-21T08:54:04.479Z,28.2
2022-09-21T08:55:07.408Z,28
2022-09-21T08:56:09.606Z,28.2
2022-09-21T08:57:11.552Z,28.1
2022-09-21T08:58:14.027Z,28.2
2022-09-21T08:59:16.507Z,28.1
2022-09-21T09:00:18.689Z,28
2022-09-21T09:01:21.230Z,28.3
2022-09-21T09:02:23.467Z,28.2
2022-09-21T09:03:26.246Z,28
2022-09-21T09:04:28.511Z,28
2022-09-21T09:05:31.059Z,27.8
2022-09-21T09:06:33.534Z,28
2022-09-21T09:07:36.010Z,28.1
2022-09-21T09:08:38.507Z,28.1
2022-09-21T09:09:40.445Z,28.3
2022-09-21T09:10:42.677Z,28.1
2022-09-21T09:11:45.147Z,28.3
2022-09-21T09:12:47.658Z,28.2
2022-09-21T09:13:50.125Z,28.1
2022-09-21T09:14:52.612Z,28.3
2022-09-21T09:15:55.151Z,28.1
2022-09-21T09:16:57.958Z,28
2022-09-21T09:18:00.443Z,28.2
2022-09-21T09:19:02.650Z,28.1
2022-09-21T09:20:05.373Z,28
2022-09-21T09:21:07.620Z,28.2
2022-09-21T09:22:10.373Z,28
2022-09-21T09:23:12.876Z,28.2
2022-09-21T09:24:14.807Z,28
2022-09-21T09:25:17.001Z,28.2
2022-09-21T09:26:18.947Z,28.2
2022-09-21T09:27:21.428Z,28.2
2022-09-21T09:28:23.612Z,28.1
2022-09-21T09:29:26.108Z,28
2022-09-21T09:30:28.580Z,28.1
2022-09-21T09:31:30.894Z,27.8
2022-09-21T09:32:33.439Z,27.9
2022-09-21T09:33:35.640Z,28.1
2022-09-21T09:34:38.116Z,28.1
2022-09-21T09:35:40.641Z,28
2022-09-21T09:36:57.657Z,28
2022-09-21T09:37:47.866Z,27.9
2022-09-21T09:38:49.769Z,28
2022-09-21T09:39:52.258Z,28.1
2022-09-21T09:40:54.455Z,27.9
2022-09-21T09:41:56.692Z,28
2022-09-21T09:43:02.512Z,28
2022-09-21T09:44:04.148Z,27.9
2022-09-21T09:45:06.080Z,28.4
2022-09-21T09:46:11.287Z,28
2022-09-21T09:47:13.559Z,28.2
2022-09-21T09:48:16.089Z,28.1
2022-09-21T09:49:18.343Z,28
2022-09-21T09:50:20.825Z,28
2022-09-21T09:51:23.577Z,27.9
2022-09-21T09:52:26.080Z,28.2
2022-09-21T09:53:28.592Z,28
2022-09-21T09:54:31.079Z,27.9
2022-09-21T09:55:33.303Z,28.2
2022-09-21T09:56:35.771Z,27.8
2022-09-21T09:57:38.292Z,28
2022-09-21T09:58:40.759Z,28.1
2022-09-21T09:59:42.969Z,28
2022-09-21T10:00:45.441Z,28.1
2022-09-21T10:01:48.014Z,27.9
2022-09-21T10:02:50.816Z,28.1
2022-09-21T10:03:52.857Z,28.1
2022-09-21T10:04:55.247Z,28.1
2022-09-21T10:05:57.727Z,27.9
2022-09-21T10:07:00.255Z,28.1
2022-09-21T10:08:02.796Z,28.2
2022-09-21T10:09:05.023Z,28.1
2022-09-21T10:10:07.229Z,28.1
2022-09-21T10:11:09.713Z,28.1
2022-09-21T10:12:11.930Z,28.2
2022-09-21T10:13:14.157Z,28.2
2022-09-21T10:14:16.669Z,28
2022-09-21T10:15:19.154Z,27.9
2022-09-21T10:16:21.453Z,28.1
2022-09-21T10:17:24.481Z,27.9
2022-09-21T10:18:26.417Z,28.1
2022-09-21T10:19:28.625Z,27.9
2022-09-21T10:20:30.882Z,28.1
2022-09-21T10:21:33.089Z,28.2
2022-09-21T10:22:35.616Z,28.2
2022-09-21T10:23:38.122Z,28
2022-09-21T10:24:40.312Z,28.1
2022-09-21T10:25:42.509Z,27.8
2022-09-21T10:26:44.985Z,28.2
2022-09-21T10:27:47.456Z,28.2
2022-09-21T10:28:49.692Z,28.1
2022-09-21T10:29:51.912Z,27.9
2022-09-21T10:30:54.158Z,28.1
2022-09-21T10:31:56.884Z,28.1
2022-09-21T10:32:59.386Z,28
2022-09-21T10:34:01.865Z,28.2
2022-09-21T10:35:04.362Z,28
2022-09-21T10:36:06.552Z,28
2022-09-21T10:37:08.482Z,28.2
2022-09-21T10:38:11.064Z,28.1
2022-09-21T10:39:13.329Z,28
2022-09-21T10:40:15.847Z,28.2
2022-09-21T10:41:18.744Z,28.3
2022-09-21T10:42:20.942Z,28
2022-09-21T10:43:24.113Z,28.1
2022-09-21T10:44:27.563Z,27.9
2022-09-21T10:45:30.090Z,28.1
2022-09-21T10:46:32.351Z,28.3
2022-09-21T10:47:35.274Z,28.1
2022-09-21T10:48:37.751Z,28.3
2022-09-21T10:49:39.408Z,28
2022-09-21T10:50:41.937Z,28.2
2022-09-21T10:51:44.421Z,28.1
2022-09-21T10:52:47.275Z,28.2
2022-09-21T10:53:52.357Z,28.2
2022-09-21T10:54:54.992Z,28
2022-09-21T10:56:14.450Z,27.9
2022-09-21T10:57:02.495Z,28.5
2022-09-21T10:58:04.983Z,28.1
2022-09-21T10:59:07.466Z,28.1
2022-09-21T11:00:09.691Z,28.1
2022-09-21T11:01:12.215Z,28.1
2022-09-21T11:02:16.581Z,28.1
2022-09-21T11:03:19.088Z,28.2
2022-09-21T11:04:21.290Z,28.1
2022-09-21T11:05:23.789Z,28.2
2022-09-21T11:06:26.278Z,28.2
2022-09-21T11:07:28.759Z,28.3
2022-09-21T11:08:31.240Z,28.1
2022-09-21T11:09:33.749Z,28.3
2022-09-21T11:10:36.212Z,28
2022-09-21T11:11:38.447Z,28.2
2022-09-21T11:12:40.930Z,28.1
2022-09-21T11:13:43.426Z,28.1
2022-09-21T11:14:45.610Z,28.2
2022-09-21T11:15:48.183Z,28.2
2022-09-21T11:16:51.057Z,28.1
2022-09-21T11:17:53.530Z,28
2022-09-21T11:18:55.772Z,27.9
2022-09-21T11:19:58.577Z,28
2022-09-21T11:21:01.139Z,28.1
2022-09-21T11:22:03.736Z,28
2022-09-21T11:23:05.936Z,28.2
2022-09-21T11:24:08.458Z,28
2022-09-21T11:25:11.049Z,28.1
2022-09-21T11:26:13.012Z,28
2022-09-21T11:27:15.233Z,28.1
2022-09-21T11:28:17.434Z,28.1
2022-09-21T11:29:19.934Z,28.1
2022-09-21T11:30:22.357Z,28
2022-09-21T11:31:24.646Z,28.1
2022-09-21T11:32:27.349Z,28
2022-09-21T11:33:29.552Z,28.1
2022-09-21T11:34:32.031Z,28.1
2022-09-21T11:35:34.524Z,28.1
2022-09-21T11:36:36.445Z,28.1
2022-09-21T11:37:38.928Z,28.2
2022-09-21T11:38:43.332Z,28.1
2022-09-21T11:39:45.908Z,28.1
2022-09-21T11:40:48.423Z,28.1
2022-09-21T11:41:50.892Z,28.2
2022-09-21T11:42:52.831Z,28.1
2022-09-21T11:43:55.031Z,28.1
2022-09-21T11:45:02.023Z,28.2
2022-09-21T11:46:04.283Z,28
2022-09-21T11:47:07.009Z,27.8
2022-09-21T11:48:09.473Z,28.1
2022-09-21T11:49:11.961Z,28.2
2022-09-21T11:50:29.588Z,28
2022-09-21T11:51:19.151Z,28
2022-09-21T11:52:21.462Z,28.3
2022-09-21T11:53:23.681Z,28.2
2022-09-21T11:54:25.856Z,28.2
2022-09-21T11:55:28.065Z,28.2
2022-09-21T11:56:30.585Z,28
2022-09-21T11:57:33.086Z,28
2022-09-21T11:58:35.589Z,28.2
2022-09-21T11:59:37.793Z,28.2
2022-09-21T12:00:40.001Z,28.2
2022-09-21T12:01:42.219Z,28.1
2022-09-21T12:02:44.619Z,28.1
2022-09-21T12:03:47.764Z,28.2
2022-09-21T12:04:49.984Z,28
2022-09-21T12:05:52.475Z,28.2
2022-09-21T12:06:54.689Z,28.1
2022-09-21T12:07:56.898Z,28.1
2022-09-21T12:08:59.394Z,28.1
2022-09-21T12:10:01.875Z,28
2022-09-21T12:11:07.894Z,28
2022-09-21T12:12:10.434Z,28
2022-09-21T12:13:12.647Z,28.2
2022-09-21T12:14:14.615Z,28.2
2022-09-21T12:15:16.864Z,28.1
2022-09-21T12:16:19.660Z,28
2022-09-21T12:17:22.487Z,28
2022-09-21T12:18:25.010Z,28.3
2022-09-21T12:19:27.219Z,28.3
2022-09-21T12:20:29.426Z,27.9
2022-09-21T12:21:31.911Z,28.2
2022-09-21T12:22:34.381Z,28.3
2022-09-21T12:23:36.874Z,28.2
2022-09-21T12:24:39.373Z,28
2022-09-21T12:25:41.598Z,28.2
2022-09-21T12:26:44.074Z,28.1
2022-09-21T12:27:46.590Z,28.4
2022-09-21T12:28:48.499Z,28.1
2022-09-21T12:29:50.237Z,28.1
2022-09-21T12:30:53.288Z,28.1
2022-09-21T12:31:59.364Z,28.1
2022-09-21T12:33:01.566Z,28.3
2022-09-21T12:34:04.073Z,28
2022-09-21T12:35:07.159Z,28.3
2022-09-21T12:36:09.638Z,28.2
2022-09-21T12:37:12.141Z,28.2
2022-09-21T12:38:14.096Z,28.2
2022-09-21T12:39:16.305Z,28.3
2022-09-21T12:40:18.877Z,28.1
2022-09-21T12:41:21.222Z,28
2022-09-21T12:42:22.941Z,28.1
2022-09-21T12:43:25.472Z,28.4
2022-09-21T12:44:27.956Z,28.1
2022-09-21T12:45:29.949Z,28.1
2022-09-21T12:46:32.028Z,28.3
2022-09-21T12:47:35.120Z,28.1
2022-09-21T12:48:37.616Z,28.2
2022-09-21T12:49:40.130Z,28.1
2022-09-21T12:50:42.606Z,28.3
2022-09-21T12:51:44.796Z,28.1
2022-09-21T12:52:46.731Z,28.2
2022-09-21T12:53:50.975Z,28.3
2022-09-21T12:54:53.142Z,28
2022-09-21T12:55:55.646Z,28.2
2022-09-21T12:56:58.138Z,28.3
2022-09-21T12:58:16.288Z,28.2
2022-09-21T12:59:05.422Z,28.4
2022-09-21T13:00:08.486Z,28.1
2022-09-21T13:01:10.761Z,28
2022-09-21T13:02:14.162Z,28.2
2022-09-21T13:03:18.112Z,28.1
2022-09-21T13:04:20.408Z,28.1
2022-09-21T13:05:22.641Z,28.2
2022-09-21T13:06:25.144Z,28.2
2022-09-21T13:07:27.069Z,28.3
2022-09-21T13:08:29.556Z,28.1
2022-09-21T13:09:32.040Z,28
2022-09-21T13:10:34.552Z,28.4
2022-09-21T13:11:36.790Z,28.1
2022-09-21T13:12:38.693Z,28.1
2022-09-21T13:13:40.922Z,28.2
2022-09-21T13:14:43.403Z,28
2022-09-21T13:15:45.646Z,28.2
2022-09-21T13:16:48.181Z,28.1
2022-09-21T13:17:50.570Z,28.1
2022-09-21T13:18:52.766Z,28
2022-09-21T13:19:55.144Z,28
2022-09-21T13:20:57.673Z,28.2
2022-09-21T13:21:59.889Z,27.9
2022-09-21T13:23:02.125Z,28.1
2022-09-21T13:24:04.653Z,28.2
2022-09-21T13:25:06.867Z,27.9
2022-09-21T13:26:09.356Z,28.2
2022-09-21T13:27:11.853Z,28
2022-09-21T13:28:14.345Z,28.2
2022-09-21T13:29:16.277Z,28.2
2022-09-21T13:30:18.769Z,28.3
2022-09-21T13:31:39.684Z,28.2
2022-09-21T13:32:26.344Z,27.8
2022-09-21T13:33:28.860Z,28.1
2022-09-21T13:34:31.116Z,28.3
2022-09-21T13:35:33.336Z,27.8
2022-09-21T13:36:35.829Z,27.9
2022-09-21T13:37:38.298Z,27.9
2022-09-21T13:38:40.769Z,28.1
2022-09-21T13:39:43.250Z,28.3
2022-09-21T13:40:45.779Z,28.2
2022-09-21T13:42:04.149Z,28.2
2022-09-21T13:42:53.539Z,28.2
2022-09-21T13:43:57.520Z,28.2
2022-09-21T13:45:01.110Z,28.3
2022-09-21T13:46:03.108Z,28
2022-09-21T13:47:06.034Z,28
2022-09-21T13:48:08.247Z,28
2022-09-21T13:49:10.743Z,27.9
2022-09-21T13:50:13.330Z,28.2
2022-09-21T13:51:15.531Z,28.2
2022-09-21T13:52:18.035Z,28.1
2022-09-21T13:53:20.504Z,28.1
2022-09-21T13:54:23.000Z,28.1
2022-09-21T13:55:25.475Z,27.8
2022-09-21T13:56:27.703Z,28.1
2022-09-21T13:57:30.176Z,28.1
2022-09-21T13:58:32.650Z,28.2
2022-09-21T13:59:34.609Z,28
2022-09-21T14:00:37.105Z,28
2022-09-21T14:01:47.917Z,28
2022-09-21T14:02:44.916Z,28.2